sensor_id;sensor_type;location;lat;lon;timestamp;P1;durP1;ratioP1;P2;durP2;ratioP2
67156;SDS011;54086;50.126;8.710;2023-02-04T00:01:40;10.70;;;2.70;;
67156;SDS011;54086;50.126;8.710;2023-02-04T00:04:05;15.30;;;2.90;;
67156;SDS011;54086;50.126;8.710;2023-02-04T00:06:31;12.43;;;3.03;;
67156;SDS011;54086;50.126;8.710;2023-02-04T00:08:56;15.83;;;3.40;;
67156;SDS011;54086;50.126;8.710;2023-02-04T00:11:21;12.67;;;2.93;;
67156;SDS011;54086;50.126;8.710;2023-02-04T00:13:47;12.50;;;3.00;;
67156;SDS011;54086;50.126;8.710;2023-02-04T00:16:12;15.53;;;3.13;;
67156;SDS011;54086;50.126;8.710;2023-02-04T00:18:38;15.20;;;3.20;;
67156;SDS011;54086;50.126;8.710;2023-02-04T00:21:03;9.70;;;3.10;;
67156;SDS011;54086;50.126;8.710;2023-02-04T00:23:29;10.15;;;3.38;;
67156;SDS011;54086;50.126;8.710;2023-02-04T00:25:54;9.03;;;3.37;;
67156;SDS011;54086;50.126;8.710;2023-02-04T00:28:19;15.27;;;3.23;;
67156;SDS011;54086;50.126;8.710;2023-02-04T00:30:45;13.70;;;2.83;;
67156;SDS011;54086;50.126;8.710;2023-02-04T00:33:11;12.80;;;2.63;;
67156;SDS011;54086;50.126;8.710;2023-02-04T00:35:37;11.25;;;2.58;;
67156;SDS011;54086;50.126;8.710;2023-02-04T00:38:03;11.80;;;3.47;;
67156;SDS011;54086;50.126;8.710;2023-02-04T00:40:29;9.43;;;2.88;;
67156;SDS011;54086;50.126;8.710;2023-02-04T00:42:54;13.37;;;3.77;;
67156;SDS011;54086;50.126;8.710;2023-02-04T00:45:20;9.13;;;3.53;;
67156;SDS011;54086;50.126;8.710;2023-02-04T00:47:45;17.23;;;2.57;;
67156;SDS011;54086;50.126;8.710;2023-02-04T00:50:10;12.67;;;2.67;;
67156;SDS011;54086;50.126;8.710;2023-02-04T00:52:36;11.93;;;2.75;;
67156;SDS011;54086;50.126;8.710;2023-02-04T00:55:01;13.53;;;2.77;;
67156;SDS011;54086;50.126;8.710;2023-02-04T00:57:27;12.03;;;3.17;;
67156;SDS011;54086;50.126;8.710;2023-02-04T00:59:52;10.03;;;2.13;;
67156;SDS011;54086;50.126;8.710;2023-02-04T01:02:17;12.77;;;3.10;;
67156;SDS011;54086;50.126;8.710;2023-02-04T01:04:43;17.08;;;2.75;;
67156;SDS011;54086;50.126;8.710;2023-02-04T01:07:08;14.53;;;2.47;;
67156;SDS011;54086;50.126;8.710;2023-02-04T01:09:34;10.13;;;2.47;;
67156;SDS011;54086;50.126;8.710;2023-02-04T01:11:59;11.57;;;2.80;;
67156;SDS011;54086;50.126;8.710;2023-02-04T01:14:25;9.93;;;2.38;;
67156;SDS011;54086;50.126;8.710;2023-02-04T01:16:50;6.90;;;2.10;;
67156;SDS011;54086;50.126;8.710;2023-02-04T01:19:16;9.13;;;2.80;;
67156;SDS011;54086;50.126;8.710;2023-02-04T01:21:41;9.47;;;2.53;;
67156;SDS011;54086;50.126;8.710;2023-02-04T01:24:07;12.70;;;2.63;;
67156;SDS011;54086;50.126;8.710;2023-02-04T01:26:32;16.60;;;3.13;;
67156;SDS011;54086;50.126;8.710;2023-02-04T01:28:58;13.23;;;2.42;;
67156;SDS011;54086;50.126;8.710;2023-02-04T01:31:23;12.70;;;2.73;;
67156;SDS011;54086;50.126;8.710;2023-02-04T01:33:48;8.87;;;2.50;;
67156;SDS011;54086;50.126;8.710;2023-02-04T01:36:14;13.37;;;2.97;;
67156;SDS011;54086;50.126;8.710;2023-02-04T01:38:45;11.75;;;2.50;;
67156;SDS011;54086;50.126;8.710;2023-02-04T01:41:11;14.32;;;3.05;;
67156;SDS011;54086;50.126;8.710;2023-02-04T01:43:36;11.30;;;2.67;;
67156;SDS011;54086;50.126;8.710;2023-02-04T01:46:02;11.40;;;2.83;;
67156;SDS011;54086;50.126;8.710;2023-02-04T01:48:28;11.85;;;2.83;;
67156;SDS011;54086;50.126;8.710;2023-02-04T01:51:04;10.45;;;2.50;;
67156;SDS011;54086;50.126;8.710;2023-02-04T01:53:33;15.47;;;2.90;;
67156;SDS011;54086;50.126;8.710;2023-02-04T01:56:00;11.23;;;2.33;;
67156;SDS011;54086;50.126;8.710;2023-02-04T01:58:26;11.70;;;2.33;;
67156;SDS011;54086;50.126;8.710;2023-02-04T02:00:55;9.43;;;2.30;;
67156;SDS011;54086;50.126;8.710;2023-02-04T02:03:21;11.63;;;2.47;;
67156;SDS011;54086;50.126;8.710;2023-02-04T02:05:47;10.33;;;2.77;;
67156;SDS011;54086;50.126;8.710;2023-02-04T02:08:15;12.20;;;2.58;;
67156;SDS011;54086;50.126;8.710;2023-02-04T02:10:41;9.45;;;2.67;;
67156;SDS011;54086;50.126;8.710;2023-02-04T02:13:09;12.13;;;2.50;;
67156;SDS011;54086;50.126;8.710;2023-02-04T02:15:36;12.47;;;2.90;;
67156;SDS011;54086;50.126;8.710;2023-02-04T02:18:02;13.45;;;2.70;;
67156;SDS011;54086;50.126;8.710;2023-02-04T02:20:28;13.20;;;2.85;;
67156;SDS011;54086;50.126;8.710;2023-02-04T02:25:37;13.20;;;2.58;;
67156;SDS011;54086;50.126;8.710;2023-02-04T02:28:03;13.03;;;2.10;;
67156;SDS011;54086;50.126;8.710;2023-02-04T02:30:32;9.73;;;2.15;;
67156;SDS011;54086;50.126;8.710;2023-02-04T02:32:57;10.33;;;2.20;;
67156;SDS011;54086;50.126;8.710;2023-02-04T02:35:22;13.00;;;2.50;;
67156;SDS011;54086;50.126;8.710;2023-02-04T02:37:48;6.53;;;2.30;;
67156;SDS011;54086;50.126;8.710;2023-02-04T02:40:13;14.13;;;2.50;;
67156;SDS011;54086;50.126;8.710;2023-02-04T02:42:39;15.27;;;3.00;;
67156;SDS011;54086;50.126;8.710;2023-02-04T02:45:11;11.07;;;2.38;;
67156;SDS011;54086;50.126;8.710;2023-02-04T02:47:41;11.73;;;2.43;;
67156;SDS011;54086;50.126;8.710;2023-02-04T02:50:07;15.07;;;2.80;;
67156;SDS011;54086;50.126;8.710;2023-02-04T02:52:37;11.13;;;2.47;;
67156;SDS011;54086;50.126;8.710;2023-02-04T02:55:03;12.30;;;2.88;;
67156;SDS011;54086;50.126;8.710;2023-02-04T02:57:29;15.20;;;3.00;;
67156;SDS011;54086;50.126;8.710;2023-02-04T02:59:54;17.93;;;3.57;;
67156;SDS011;54086;50.126;8.710;2023-02-04T03:02:20;11.23;;;2.45;;
67156;SDS011;54086;50.126;8.710;2023-02-04T03:04:49;16.47;;;3.30;;
67156;SDS011;54086;50.126;8.710;2023-02-04T03:07:18;8.80;;;2.35;;
67156;SDS011;54086;50.126;8.710;2023-02-04T03:09:45;13.73;;;2.80;;
67156;SDS011;54086;50.126;8.710;2023-02-04T03:12:11;13.27;;;2.67;;
67156;SDS011;54086;50.126;8.710;2023-02-04T03:14:36;15.55;;;2.95;;
67156;SDS011;54086;50.126;8.710;2023-02-04T03:17:03;10.23;;;2.43;;
67156;SDS011;54086;50.126;8.710;2023-02-04T03:19:30;16.88;;;2.33;;
67156;SDS011;54086;50.126;8.710;2023-02-04T03:21:56;12.93;;;2.70;;
67156;SDS011;54086;50.126;8.710;2023-02-04T03:24:22;15.75;;;2.83;;
67156;SDS011;54086;50.126;8.710;2023-02-04T03:26:48;15.20;;;2.60;;
67156;SDS011;54086;50.126;8.710;2023-02-04T03:29:14;15.50;;;2.70;;
67156;SDS011;54086;50.126;8.710;2023-02-04T03:31:39;11.87;;;2.83;;
67156;SDS011;54086;50.126;8.710;2023-02-04T03:34:05;12.80;;;2.83;;
67156;SDS011;54086;50.126;8.710;2023-02-04T03:36:30;16.53;;;2.77;;
67156;SDS011;54086;50.126;8.710;2023-02-04T03:38:55;13.95;;;3.10;;
67156;SDS011;54086;50.126;8.710;2023-02-04T03:41:21;13.30;;;2.70;;
67156;SDS011;54086;50.126;8.710;2023-02-04T03:43:46;14.90;;;2.90;;
67156;SDS011;54086;50.126;8.710;2023-02-04T03:46:12;10.67;;;3.00;;
67156;SDS011;54086;50.126;8.710;2023-02-04T03:48:37;8.77;;;2.83;;
67156;SDS011;54086;50.126;8.710;2023-02-04T03:51:02;16.10;;;3.33;;
67156;SDS011;54086;50.126;8.710;2023-02-04T03:53:28;10.73;;;2.63;;
67156;SDS011;54086;50.126;8.710;2023-02-04T03:55:53;13.03;;;3.33;;
67156;SDS011;54086;50.126;8.710;2023-02-04T03:58:19;14.30;;;3.33;;
67156;SDS011;54086;50.126;8.710;2023-02-04T04:00:45;12.13;;;2.70;;
67156;SDS011;54086;50.126;8.710;2023-02-04T04:03:10;11.47;;;2.53;;
67156;SDS011;54086;50.126;8.710;2023-02-04T04:05:35;13.37;;;2.70;;
67156;SDS011;54086;50.126;8.710;2023-02-04T04:08:01;16.05;;;3.25;;
67156;SDS011;54086;50.126;8.710;2023-02-04T04:10:26;13.13;;;2.77;;
67156;SDS011;54086;50.126;8.710;2023-02-04T04:12:53;15.23;;;2.33;;
67156;SDS011;54086;50.126;8.710;2023-02-04T04:15:18;14.93;;;2.70;;
67156;SDS011;54086;50.126;8.710;2023-02-04T04:17:44;14.43;;;2.83;;
67156;SDS011;54086;50.126;8.710;2023-02-04T04:20:09;18.07;;;3.50;;
67156;SDS011;54086;50.126;8.710;2023-02-04T04:22:35;18.00;;;3.20;;
67156;SDS011;54086;50.126;8.710;2023-02-04T04:25:00;12.27;;;2.43;;
67156;SDS011;54086;50.126;8.710;2023-02-04T04:27:26;12.07;;;2.45;;
67156;SDS011;54086;50.126;8.710;2023-02-04T04:29:53;11.90;;;3.03;;
67156;SDS011;54086;50.126;8.710;2023-02-04T04:32:18;14.03;;;2.80;;
67156;SDS011;54086;50.126;8.710;2023-02-04T04:34:44;13.33;;;2.60;;
67156;SDS011;54086;50.126;8.710;2023-02-04T04:37:09;14.60;;;2.87;;
67156;SDS011;54086;50.126;8.710;2023-02-04T04:39:36;16.00;;;3.08;;
67156;SDS011;54086;50.126;8.710;2023-02-04T04:42:01;16.67;;;3.30;;
67156;SDS011;54086;50.126;8.710;2023-02-04T04:44:26;15.20;;;2.50;;
67156;SDS011;54086;50.126;8.710;2023-02-04T04:46:52;13.57;;;3.03;;
67156;SDS011;54086;50.126;8.710;2023-02-04T04:49:17;18.33;;;2.87;;
67156;SDS011;54086;50.126;8.710;2023-02-04T04:51:42;14.00;;;2.60;;
67156;SDS011;54086;50.126;8.710;2023-02-04T04:54:08;18.67;;;2.70;;
67156;SDS011;54086;50.126;8.710;2023-02-04T04:56:33;10.23;;;2.60;;
67156;SDS011;54086;50.126;8.710;2023-02-04T04:58:58;18.33;;;2.90;;
67156;SDS011;54086;50.126;8.710;2023-02-04T05:01:24;12.27;;;3.30;;
67156;SDS011;54086;50.126;8.710;2023-02-04T05:03:49;16.07;;;2.90;;
67156;SDS011;54086;50.126;8.710;2023-02-04T05:06:14;15.23;;;3.07;;
67156;SDS011;54086;50.126;8.710;2023-02-04T05:08:40;18.63;;;3.57;;
67156;SDS011;54086;50.126;8.710;2023-02-04T05:11:05;15.50;;;2.78;;
67156;SDS011;54086;50.126;8.710;2023-02-04T05:13:31;22.53;;;3.73;;
67156;SDS011;54086;50.126;8.710;2023-02-04T05:15:56;12.47;;;2.63;;
67156;SDS011;54086;50.126;8.710;2023-02-04T05:18:22;14.80;;;3.67;;
67156;SDS011;54086;50.126;8.710;2023-02-04T05:20:47;15.05;;;3.08;;
67156;SDS011;54086;50.126;8.710;2023-02-04T05:23:12;15.80;;;4.00;;
67156;SDS011;54086;50.126;8.710;2023-02-04T05:25:38;14.63;;;3.13;;
67156;SDS011;54086;50.126;8.710;2023-02-04T05:28:03;17.50;;;2.80;;
67156;SDS011;54086;50.126;8.710;2023-02-04T05:30:29;14.02;;;3.85;;
67156;SDS011;54086;50.126;8.710;2023-02-04T05:32:54;15.10;;;2.63;;
67156;SDS011;54086;50.126;8.710;2023-02-04T05:35:19;15.17;;;2.73;;
67156;SDS011;54086;50.126;8.710;2023-02-04T05:37:45;15.30;;;2.83;;
67156;SDS011;54086;50.126;8.710;2023-02-04T05:40:10;16.23;;;2.77;;
67156;SDS011;54086;50.126;8.710;2023-02-04T05:42:36;17.40;;;3.25;;
67156;SDS011;54086;50.126;8.710;2023-02-04T05:45:01;16.30;;;2.73;;
67156;SDS011;54086;50.126;8.710;2023-02-04T05:47:27;17.53;;;3.13;;
67156;SDS011;54086;50.126;8.710;2023-02-04T05:49:52;13.90;;;3.03;;
67156;SDS011;54086;50.126;8.710;2023-02-04T05:52:17;20.80;;;3.30;;
67156;SDS011;54086;50.126;8.710;2023-02-04T05:54:43;16.90;;;3.63;;
67156;SDS011;54086;50.126;8.710;2023-02-04T05:57:08;12.67;;;2.87;;
67156;SDS011;54086;50.126;8.710;2023-02-04T05:59:33;10.93;;;2.50;;
67156;SDS011;54086;50.126;8.710;2023-02-04T06:01:59;16.73;;;3.13;;
67156;SDS011;54086;50.126;8.710;2023-02-04T06:04:24;15.60;;;3.27;;
67156;SDS011;54086;50.126;8.710;2023-02-04T06:06:49;13.32;;;2.40;;
67156;SDS011;54086;50.126;8.710;2023-02-04T06:09:15;13.53;;;2.90;;
67156;SDS011;54086;50.126;8.710;2023-02-04T06:11:40;11.23;;;2.10;;
67156;SDS011;54086;50.126;8.710;2023-02-04T06:14:05;15.83;;;2.90;;
67156;SDS011;54086;50.126;8.710;2023-02-04T06:16:31;15.13;;;3.00;;
67156;SDS011;54086;50.126;8.710;2023-02-04T06:18:56;16.17;;;3.10;;
67156;SDS011;54086;50.126;8.710;2023-02-04T06:21:22;15.68;;;2.92;;
67156;SDS011;54086;50.126;8.710;2023-02-04T06:23:47;19.83;;;3.43;;
67156;SDS011;54086;50.126;8.710;2023-02-04T06:26:12;15.37;;;3.23;;
67156;SDS011;54086;50.126;8.710;2023-02-04T06:28:38;18.87;;;3.20;;
67156;SDS011;54086;50.126;8.710;2023-02-04T06:31:03;14.97;;;3.00;;
67156;SDS011;54086;50.126;8.710;2023-02-04T06:33:28;12.87;;;3.10;;
67156;SDS011;54086;50.126;8.710;2023-02-04T06:35:54;17.43;;;3.33;;
67156;SDS011;54086;50.126;8.710;2023-02-04T06:38:19;18.40;;;3.30;;
67156;SDS011;54086;50.126;8.710;2023-02-04T06:40:44;16.63;;;3.60;;
67156;SDS011;54086;50.126;8.710;2023-02-04T06:43:13;14.38;;;2.78;;
67156;SDS011;54086;50.126;8.710;2023-02-04T06:45:39;21.27;;;3.78;;
67156;SDS011;54086;50.126;8.710;2023-02-04T06:48:07;12.60;;;2.70;;
67156;SDS011;54086;50.126;8.710;2023-02-04T06:50:33;12.32;;;2.80;;
67156;SDS011;54086;50.126;8.710;2023-02-04T06:52:58;17.70;;;3.30;;
67156;SDS011;54086;50.126;8.710;2023-02-04T06:55:23;15.13;;;3.00;;
67156;SDS011;54086;50.126;8.710;2023-02-04T06:57:49;17.50;;;3.27;;
67156;SDS011;54086;50.126;8.710;2023-02-04T07:00:14;14.50;;;3.03;;
67156;SDS011;54086;50.126;8.710;2023-02-04T07:02:40;16.02;;;3.45;;
67156;SDS011;54086;50.126;8.710;2023-02-04T07:05:06;14.68;;;3.53;;
67156;SDS011;54086;50.126;8.710;2023-02-04T07:07:32;14.07;;;3.30;;
67156;SDS011;54086;50.126;8.710;2023-02-04T07:09:57;21.30;;;3.70;;
67156;SDS011;54086;50.126;8.710;2023-02-04T07:12:23;16.08;;;3.10;;
67156;SDS011;54086;50.126;8.710;2023-02-04T07:14:51;17.60;;;3.43;;
67156;SDS011;54086;50.126;8.710;2023-02-04T07:17:16;15.43;;;2.95;;
67156;SDS011;54086;50.126;8.710;2023-02-04T07:19:41;18.00;;;3.53;;
67156;SDS011;54086;50.126;8.710;2023-02-04T07:22:07;22.00;;;4.00;;
67156;SDS011;54086;50.126;8.710;2023-02-04T07:24:32;17.03;;;3.90;;
67156;SDS011;54086;50.126;8.710;2023-02-04T07:26:57;19.03;;;3.40;;
67156;SDS011;54086;50.126;8.710;2023-02-04T07:29:23;22.05;;;4.93;;
67156;SDS011;54086;50.126;8.710;2023-02-04T07:31:49;20.03;;;3.50;;
67156;SDS011;54086;50.126;8.710;2023-02-04T07:34:16;20.30;;;3.65;;
67156;SDS011;54086;50.126;8.710;2023-02-04T07:36:42;19.67;;;3.58;;
67156;SDS011;54086;50.126;8.710;2023-02-04T07:39:07;18.53;;;3.83;;
67156;SDS011;54086;50.126;8.710;2023-02-04T07:41:33;20.87;;;3.60;;
67156;SDS011;54086;50.126;8.710;2023-02-04T07:43:58;21.30;;;4.33;;
67156;SDS011;54086;50.126;8.710;2023-02-04T07:46:24;22.83;;;4.32;;
67156;SDS011;54086;50.126;8.710;2023-02-04T07:48:50;22.57;;;3.67;;
67156;SDS011;54086;50.126;8.710;2023-02-04T07:51:15;16.20;;;3.75;;
67156;SDS011;54086;50.126;8.710;2023-02-04T07:53:41;20.20;;;3.80;;
67156;SDS011;54086;50.126;8.710;2023-02-04T07:56:07;18.88;;;3.97;;
67156;SDS011;54086;50.126;8.710;2023-02-04T07:58:32;17.63;;;3.63;;
67156;SDS011;54086;50.126;8.710;2023-02-04T08:00:57;17.03;;;4.00;;
67156;SDS011;54086;50.126;8.710;2023-02-04T08:03:23;16.57;;;4.57;;
67156;SDS011;54086;50.126;8.710;2023-02-04T08:05:48;19.00;;;4.13;;
67156;SDS011;54086;50.126;8.710;2023-02-04T08:08:14;13.60;;;3.90;;
67156;SDS011;54086;50.126;8.710;2023-02-04T08:10:40;22.23;;;3.87;;
67156;SDS011;54086;50.126;8.710;2023-02-04T08:13:05;18.33;;;4.20;;
67156;SDS011;54086;50.126;8.710;2023-02-04T08:15:30;25.53;;;4.50;;
67156;SDS011;54086;50.126;8.710;2023-02-04T08:17:56;17.47;;;4.27;;
67156;SDS011;54086;50.126;8.710;2023-02-04T08:20:22;17.03;;;3.93;;
67156;SDS011;54086;50.126;8.710;2023-02-04T08:22:47;21.50;;;5.87;;
67156;SDS011;54086;50.126;8.710;2023-02-04T08:25:13;24.37;;;4.50;;
67156;SDS011;54086;50.126;8.710;2023-02-04T08:27:38;23.23;;;4.17;;
67156;SDS011;54086;50.126;8.710;2023-02-04T08:30:03;22.20;;;4.47;;
67156;SDS011;54086;50.126;8.710;2023-02-04T08:32:29;18.90;;;3.83;;
67156;SDS011;54086;50.126;8.710;2023-02-04T08:34:55;21.07;;;4.37;;
67156;SDS011;54086;50.126;8.710;2023-02-04T08:37:23;17.23;;;3.90;;
67156;SDS011;54086;50.126;8.710;2023-02-04T08:39:49;18.10;;;3.63;;
67156;SDS011;54086;50.126;8.710;2023-02-04T08:42:14;17.77;;;3.57;;
67156;SDS011;54086;50.126;8.710;2023-02-04T08:44:40;21.50;;;4.38;;
67156;SDS011;54086;50.126;8.710;2023-02-04T08:47:07;18.23;;;3.80;;
67156;SDS011;54086;50.126;8.710;2023-02-04T08:49:32;16.70;;;3.53;;
67156;SDS011;54086;50.126;8.710;2023-02-04T08:51:57;18.60;;;4.25;;
67156;SDS011;54086;50.126;8.710;2023-02-04T08:54:23;18.80;;;3.70;;
67156;SDS011;54086;50.126;8.710;2023-02-04T08:56:50;16.65;;;4.30;;
67156;SDS011;54086;50.126;8.710;2023-02-04T08:59:15;17.83;;;4.27;;
67156;SDS011;54086;50.126;8.710;2023-02-04T09:01:40;21.43;;;3.67;;
67156;SDS011;54086;50.126;8.710;2023-02-04T09:04:06;16.60;;;3.50;;
67156;SDS011;54086;50.126;8.710;2023-02-04T09:06:31;17.92;;;3.55;;
67156;SDS011;54086;50.126;8.710;2023-02-04T09:08:57;23.07;;;4.10;;
67156;SDS011;54086;50.126;8.710;2023-02-04T09:11:22;23.27;;;3.70;;
67156;SDS011;54086;50.126;8.710;2023-02-04T09:13:47;13.77;;;3.70;;
67156;SDS011;54086;50.126;8.710;2023-02-04T09:16:13;14.57;;;3.37;;
67156;SDS011;54086;50.126;8.710;2023-02-04T09:18:38;17.97;;;3.83;;
67156;SDS011;54086;50.126;8.710;2023-02-04T09:21:04;13.80;;;2.93;;
67156;SDS011;54086;50.126;8.710;2023-02-04T09:23:29;14.83;;;3.63;;
67156;SDS011;54086;50.126;8.710;2023-02-04T09:25:55;17.23;;;2.70;;
67156;SDS011;54086;50.126;8.710;2023-02-04T09:28:20;15.97;;;2.87;;
67156;SDS011;54086;50.126;8.710;2023-02-04T09:30:46;17.50;;;2.97;;
67156;SDS011;54086;50.126;8.710;2023-02-04T09:33:12;18.20;;;4.13;;
67156;SDS011;54086;50.126;8.710;2023-02-04T09:35:38;18.73;;;3.20;;
67156;SDS011;54086;50.126;8.710;2023-02-04T09:38:04;11.95;;;2.67;;
67156;SDS011;54086;50.126;8.710;2023-02-04T09:40:30;14.67;;;2.70;;
67156;SDS011;54086;50.126;8.710;2023-02-04T09:42:58;11.73;;;3.15;;
67156;SDS011;54086;50.126;8.710;2023-02-04T09:45:26;11.48;;;2.78;;
67156;SDS011;54086;50.126;8.710;2023-02-04T09:47:53;17.83;;;3.10;;
67156;SDS011;54086;50.126;8.710;2023-02-04T09:50:21;16.25;;;3.05;;
67156;SDS011;54086;50.126;8.710;2023-02-04T09:52:49;16.30;;;3.60;;
67156;SDS011;54086;50.126;8.710;2023-02-04T09:55:17;15.77;;;2.72;;
67156;SDS011;54086;50.126;8.710;2023-02-04T09:57:45;21.35;;;3.08;;
67156;SDS011;54086;50.126;8.710;2023-02-04T10:00:18;13.07;;;2.80;;
67156;SDS011;54086;50.126;8.710;2023-02-04T10:02:50;15.52;;;2.72;;
67156;SDS011;54086;50.126;8.710;2023-02-04T10:05:29;18.75;;;3.10;;
67156;SDS011;54086;50.126;8.710;2023-02-04T10:07:56;17.43;;;3.13;;
67156;SDS011;54086;50.126;8.710;2023-02-04T10:10:23;17.27;;;3.03;;
67156;SDS011;54086;50.126;8.710;2023-02-04T10:12:51;17.23;;;3.00;;
67156;SDS011;54086;50.126;8.710;2023-02-04T10:15:19;12.10;;;2.55;;
67156;SDS011;54086;50.126;8.710;2023-02-04T10:17:46;13.82;;;2.75;;
67156;SDS011;54086;50.126;8.710;2023-02-04T10:20:20;14.73;;;2.77;;
67156;SDS011;54086;50.126;8.710;2023-02-04T10:22:47;16.83;;;3.00;;
67156;SDS011;54086;50.126;8.710;2023-02-04T10:25:16;13.82;;;2.35;;
67156;SDS011;54086;50.126;8.710;2023-02-04T10:27:48;18.20;;;3.33;;
67156;SDS011;54086;50.126;8.710;2023-02-04T10:30:24;12.25;;;2.10;;
67156;SDS011;54086;50.126;8.710;2023-02-04T10:32:51;13.33;;;2.23;;
67156;SDS011;54086;50.126;8.710;2023-02-04T10:35:19;11.65;;;1.85;;
67156;SDS011;54086;50.126;8.710;2023-02-04T10:37:46;11.25;;;2.00;;
67156;SDS011;54086;50.126;8.710;2023-02-04T10:40:26;10.52;;;1.90;;
67156;SDS011;54086;50.126;8.710;2023-02-04T10:42:52;15.10;;;3.00;;
67156;SDS011;54086;50.126;8.710;2023-02-04T10:45:26;15.18;;;2.35;;
67156;SDS011;54086;50.126;8.710;2023-02-04T10:47:53;10.57;;;1.80;;
67156;SDS011;54086;50.126;8.710;2023-02-04T10:50:21;13.70;;;2.33;;
67156;SDS011;54086;50.126;8.710;2023-02-04T10:52:50;11.30;;;1.83;;
67156;SDS011;54086;50.126;8.710;2023-02-04T10:55:20;16.73;;;2.17;;
67156;SDS011;54086;50.126;8.710;2023-02-04T10:57:47;9.38;;;2.45;;
67156;SDS011;54086;50.126;8.710;2023-02-04T11:00:18;15.13;;;2.03;;
67156;SDS011;54086;50.126;8.710;2023-02-04T11:05:15;15.02;;;2.70;;
67156;SDS011;54086;50.126;8.710;2023-02-04T11:07:43;8.53;;;2.40;;
67156;SDS011;54086;50.126;8.710;2023-02-04T11:10:14;11.23;;;2.25;;
67156;SDS011;54086;50.126;8.710;2023-02-04T11:18:11;10.63;;;2.00;;
67156;SDS011;54086;50.126;8.710;2023-02-04T11:20:58;9.63;;;1.93;;
67156;SDS011;54086;50.126;8.710;2023-02-04T11:28:47;12.18;;;2.15;;
67156;SDS011;54086;50.126;8.710;2023-02-04T11:33:43;11.77;;;1.92;;
67156;SDS011;54086;50.126;8.710;2023-02-04T11:36:10;12.60;;;2.50;;
67156;SDS011;54086;50.126;8.710;2023-02-04T11:38:37;20.42;;;2.53;;
67156;SDS011;54086;50.126;8.710;2023-02-04T11:41:04;11.23;;;1.98;;
67156;SDS011;54086;50.126;8.710;2023-02-04T11:43:33;13.57;;;2.70;;
67156;SDS011;54086;50.126;8.710;2023-02-04T11:46:06;11.47;;;1.90;;
67156;SDS011;54086;50.126;8.710;2023-02-04T11:48:37;10.18;;;2.40;;
67156;SDS011;54086;50.126;8.710;2023-02-04T11:51:08;15.20;;;2.05;;
67156;SDS011;54086;50.126;8.710;2023-02-04T11:53:36;7.77;;;1.90;;
67156;SDS011;54086;50.126;8.710;2023-02-04T11:56:02;10.13;;;2.20;;
67156;SDS011;54086;50.126;8.710;2023-02-04T11:58:28;12.60;;;2.27;;
67156;SDS011;54086;50.126;8.710;2023-02-04T12:00:55;14.82;;;2.20;;
67156;SDS011;54086;50.126;8.710;2023-02-04T12:03:28;11.73;;;2.33;;
67156;SDS011;54086;50.126;8.710;2023-02-04T12:05:55;12.70;;;2.08;;
67156;SDS011;54086;50.126;8.710;2023-02-04T12:10:48;15.17;;;2.90;;
67156;SDS011;54086;50.126;8.710;2023-02-04T12:13:23;12.07;;;2.00;;
67156;SDS011;54086;50.126;8.710;2023-02-04T12:15:59;14.55;;;2.30;;
67156;SDS011;54086;50.126;8.710;2023-02-04T12:18:24;14.93;;;2.10;;
67156;SDS011;54086;50.126;8.710;2023-02-04T12:20:52;13.53;;;3.20;;
67156;SDS011;54086;50.126;8.710;2023-02-04T12:23:17;10.20;;;2.33;;
67156;SDS011;54086;50.126;8.710;2023-02-04T12:25:43;11.82;;;2.30;;
67156;SDS011;54086;50.126;8.710;2023-02-04T12:28:08;11.63;;;2.60;;
67156;SDS011;54086;50.126;8.710;2023-02-04T12:30:34;12.40;;;2.00;;
67156;SDS011;54086;50.126;8.710;2023-02-04T12:33:00;10.20;;;1.90;;
67156;SDS011;54086;50.126;8.710;2023-02-04T12:35:26;14.53;;;2.97;;
67156;SDS011;54086;50.126;8.710;2023-02-04T12:37:51;12.77;;;2.72;;
67156;SDS011;54086;50.126;8.710;2023-02-04T12:40:17;13.67;;;2.40;;
67156;SDS011;54086;50.126;8.710;2023-02-04T12:42:44;9.90;;;1.60;;
67156;SDS011;54086;50.126;8.710;2023-02-04T12:45:09;10.03;;;1.97;;
67156;SDS011;54086;50.126;8.710;2023-02-04T12:47:36;10.23;;;2.17;;
67156;SDS011;54086;50.126;8.710;2023-02-04T12:50:02;13.10;;;2.03;;
67156;SDS011;54086;50.126;8.710;2023-02-04T12:52:28;13.27;;;2.25;;
67156;SDS011;54086;50.126;8.710;2023-02-04T12:54:53;10.00;;;2.27;;
67156;SDS011;54086;50.126;8.710;2023-02-04T12:57:19;10.27;;;2.40;;
67156;SDS011;54086;50.126;8.710;2023-02-04T12:59:45;14.43;;;2.58;;
67156;SDS011;54086;50.126;8.710;2023-02-04T13:02:11;10.53;;;2.50;;
67156;SDS011;54086;50.126;8.710;2023-02-04T13:04:36;12.13;;;2.75;;
67156;SDS011;54086;50.126;8.710;2023-02-04T13:07:01;14.50;;;2.27;;
67156;SDS011;54086;50.126;8.710;2023-02-04T13:09:27;12.80;;;2.10;;
67156;SDS011;54086;50.126;8.710;2023-02-04T13:11:52;13.70;;;2.70;;
67156;SDS011;54086;50.126;8.710;2023-02-04T13:14:18;10.93;;;1.83;;
67156;SDS011;54086;50.126;8.710;2023-02-04T13:16:43;12.70;;;2.30;;
67156;SDS011;54086;50.126;8.710;2023-02-04T13:19:08;13.67;;;2.67;;
67156;SDS011;54086;50.126;8.710;2023-02-04T13:21:34;15.80;;;2.17;;
67156;SDS011;54086;50.126;8.710;2023-02-04T13:23:59;13.70;;;2.03;;
67156;SDS011;54086;50.126;8.710;2023-02-04T13:26:25;15.02;;;2.85;;
67156;SDS011;54086;50.126;8.710;2023-02-04T13:28:50;10.67;;;1.70;;
67156;SDS011;54086;50.126;8.710;2023-02-04T13:31:15;9.33;;;2.17;;
67156;SDS011;54086;50.126;8.710;2023-02-04T13:33:41;12.70;;;1.80;;
67156;SDS011;54086;50.126;8.710;2023-02-04T13:36:06;14.67;;;2.37;;
67156;SDS011;54086;50.126;8.710;2023-02-04T13:38:32;10.82;;;1.98;;
67156;SDS011;54086;50.126;8.710;2023-02-04T13:40:57;8.50;;;1.87;;
67156;SDS011;54086;50.126;8.710;2023-02-04T13:43:22;10.80;;;1.80;;
67156;SDS011;54086;50.126;8.710;2023-02-04T13:45:48;12.83;;;2.00;;
67156;SDS011;54086;50.126;8.710;2023-02-04T13:48:13;10.55;;;1.75;;
67156;SDS011;54086;50.126;8.710;2023-02-04T13:50:40;13.02;;;1.98;;
67156;SDS011;54086;50.126;8.710;2023-02-04T13:53:05;10.80;;;2.03;;
67156;SDS011;54086;50.126;8.710;2023-02-04T13:55:32;10.70;;;1.90;;
67156;SDS011;54086;50.126;8.710;2023-02-04T13:57:57;15.83;;;2.37;;
67156;SDS011;54086;50.126;8.710;2023-02-04T14:00:23;14.37;;;2.10;;
67156;SDS011;54086;50.126;8.710;2023-02-04T14:02:48;10.50;;;1.83;;
67156;SDS011;54086;50.126;8.710;2023-02-04T14:05:14;12.68;;;1.88;;
67156;SDS011;54086;50.126;8.710;2023-02-04T14:07:40;11.77;;;2.00;;
67156;SDS011;54086;50.126;8.710;2023-02-04T14:10:05;11.68;;;2.10;;
67156;SDS011;54086;50.126;8.710;2023-02-04T14:12:31;15.17;;;2.20;;
67156;SDS011;54086;50.126;8.710;2023-02-04T14:14:56;11.18;;;1.90;;
67156;SDS011;54086;50.126;8.710;2023-02-04T14:17:22;15.30;;;2.90;;
67156;SDS011;54086;50.126;8.710;2023-02-04T14:19:47;14.60;;;2.13;;
67156;SDS011;54086;50.126;8.710;2023-02-04T14:22:12;11.57;;;1.83;;
67156;SDS011;54086;50.126;8.710;2023-02-04T14:24:38;13.03;;;1.80;;
67156;SDS011;54086;50.126;8.710;2023-02-04T14:27:06;8.73;;;1.92;;
67156;SDS011;54086;50.126;8.710;2023-02-04T14:29:32;8.82;;;2.28;;
67156;SDS011;54086;50.126;8.710;2023-02-04T14:31:58;16.73;;;2.67;;
67156;SDS011;54086;50.126;8.710;2023-02-04T14:34:23;8.83;;;1.97;;
67156;SDS011;54086;50.126;8.710;2023-02-04T14:36:49;10.57;;;1.97;;
67156;SDS011;54086;50.126;8.710;2023-02-04T14:39:14;9.13;;;1.83;;
67156;SDS011;54086;50.126;8.710;2023-02-04T14:41:39;10.90;;;2.00;;
67156;SDS011;54086;50.126;8.710;2023-02-04T14:44:05;12.50;;;2.57;;
67156;SDS011;54086;50.126;8.710;2023-02-04T14:46:30;9.50;;;1.77;;
67156;SDS011;54086;50.126;8.710;2023-02-04T14:48:55;13.00;;;2.30;;
67156;SDS011;54086;50.126;8.710;2023-02-04T14:51:21;11.13;;;2.00;;